sensor_id;sensor_type;location;lat;lon;timestamp;temperature;humidity
56538;DHT22;42435;53.292;6.000;2023-12-22T00:00:12;6.10;76.50
56538;DHT22;42435;53.292;6.000;2023-12-22T00:02:37;6.20;76.60
56538;DHT22;42435;53.292;6.000;2023-12-22T00:05:03;6.20;76.60
56538;DHT22;42435;53.292;6.000;2023-12-22T00:07:29;6.30;76.50
56538;DHT22;42435;53.292;6.000;2023-12-22T00:09:54;6.40;76.40
56538;DHT22;42435;53.292;6.000;2023-12-22T00:12:20;6.40;76.50
56538;DHT22;42435;53.292;6.000;2023-12-22T00:14:49;6.40;76.20
56538;DHT22;42435;53.292;6.000;2023-12-22T00:17:17;6.40;76.10
56538;DHT22;42435;53.292;6.000;2023-12-22T00:19:43;6.20;76.10
56538;DHT22;42435;53.292;6.000;2023-12-22T00:22:08;6.10;76.50
56538;DHT22;42435;53.292;6.000;2023-12-22T00:24:34;6.00;76.90
56538;DHT22;42435;53.292;6.000;2023-12-22T00:27:00;5.90;77.30
56538;DHT22;42435;53.292;6.000;2023-12-22T00:29:25;5.90;77.60
56538;DHT22;42435;53.292;6.000;2023-12-22T00:31:54;5.90;77.90
56538;DHT22;42435;53.292;6.000;2023-12-22T00:34:21;5.90;78.30
56538;DHT22;42435;53.292;6.000;2023-12-22T00:36:47;5.90;78.70
56538;DHT22;42435;53.292;6.000;2023-12-22T00:39:13;6.00;79.00
56538;DHT22;42435;53.292;6.000;2023-12-22T00:41:39;6.10;79.20
56538;DHT22;42435;53.292;6.000;2023-12-22T00:44:05;6.10;78.20
56538;DHT22;42435;53.292;6.000;2023-12-22T00:46:31;6.00;77.50
56538;DHT22;42435;53.292;6.000;2023-12-22T00:48:57;5.70;77.30
56538;DHT22;42435;53.292;6.000;2023-12-22T00:51:22;5.60;77.50
56538;DHT22;42435;53.292;6.000;2023-12-22T00:53:48;5.50;77.90
56538;DHT22;42435;53.292;6.000;2023-12-22T00:56:14;5.40;78.30
56538;DHT22;42435;53.292;6.000;2023-12-22T00:58:40;5.40;78.80
56538;DHT22;42435;53.292;6.000;2023-12-22T01:01:07;5.40;79.10
56538;DHT22;42435;53.292;6.000;2023-12-22T01:03:33;5.50;79.20
56538;DHT22;42435;53.292;6.000;2023-12-22T01:05:58;5.50;79.40
56538;DHT22;42435;53.292;6.000;2023-12-22T01:08:24;5.50;79.50
56538;DHT22;42435;53.292;6.000;2023-12-22T01:10:50;5.40;79.60
56538;DHT22;42435;53.292;6.000;2023-12-22T01:13:15;5.40;79.70
56538;DHT22;42435;53.292;6.000;2023-12-22T01:15:41;5.40;79.90
56538;DHT22;42435;53.292;6.000;2023-12-22T01:18:10;5.40;80.00
56538;DHT22;42435;53.292;6.000;2023-12-22T01:20:37;5.50;80.00
56538;DHT22;42435;53.292;6.000;2023-12-22T01:23:06;5.50;80.00
56538;DHT22;42435;53.292;6.000;2023-12-22T01:25:31;5.70;80.00
56538;DHT22;42435;53.292;6.000;2023-12-22T01:27:57;5.80;79.80
56538;DHT22;42435;53.292;6.000;2023-12-22T01:30:22;5.90;79.70
56538;DHT22;42435;53.292;6.000;2023-12-22T01:32:48;5.80;79.50
56538;DHT22;42435;53.292;6.000;2023-12-22T01:35:13;5.90;79.50
56538;DHT22;42435;53.292;6.000;2023-12-22T01:37:40;5.90;79.50
56538;DHT22;42435;53.292;6.000;2023-12-22T01:40:07;5.90;79.60
56538;DHT22;42435;53.292;6.000;2023-12-22T01:42:33;5.80;79.60
56538;DHT22;42435;53.292;6.000;2023-12-22T01:44:58;5.90;79.70
56538;DHT22;42435;53.292;6.000;2023-12-22T01:47:24;5.90;79.70
56538;DHT22;42435;53.292;6.000;2023-12-22T01:49:52;5.90;79.70
56538;DHT22;42435;53.292;6.000;2023-12-22T01:52:19;6.00;79.50
56538;DHT22;42435;53.292;6.000;2023-12-22T01:54:44;6.00;79.20
56538;DHT22;42435;53.292;6.000;2023-12-22T01:57:13;6.10;79.10
56538;DHT22;42435;53.292;6.000;2023-12-22T01:59:43;6.20;78.80
56538;DHT22;42435;53.292;6.000;2023-12-22T02:02:09;6.20;78.60
56538;DHT22;42435;53.292;6.000;2023-12-22T02:04:34;6.30;78.50
56538;DHT22;42435;53.292;6.000;2023-12-22T02:07:01;6.40;78.50
56538;DHT22;42435;53.292;6.000;2023-12-22T02:09:27;6.40;78.50
56538;DHT22;42435;53.292;6.000;2023-12-22T02:11:53;6.40;78.50
56538;DHT22;42435;53.292;6.000;2023-12-22T02:14:19;6.20;78.70
56538;DHT22;42435;53.292;6.000;2023-12-22T02:16:52;6.20;78.80
56538;DHT22;42435;53.292;6.000;2023-12-22T02:19:40;6.10;79.10
56538;DHT22;42435;53.292;6.000;2023-12-22T02:22:08;6.00;79.20
56538;DHT22;42435;53.292;6.000;2023-12-22T02:24:34;6.00;79.30
56538;DHT22;42435;53.292;6.000;2023-12-22T02:27:05;6.00;79.80
56538;DHT22;42435;53.292;6.000;2023-12-22T02:29:43;6.00;80.40
56538;DHT22;42435;53.292;6.000;2023-12-22T02:32:17;6.10;80.70
56538;DHT22;42435;53.292;6.000;2023-12-22T02:34:49;6.20;80.80
56538;DHT22;42435;53.292;6.000;2023-12-22T02:37:16;6.20;80.70
56538;DHT22;42435;53.292;6.000;2023-12-22T02:39:43;6.20;80.60
56538;DHT22;42435;53.292;6.000;2023-12-22T02:42:10;6.10;80.50
56538;DHT22;42435;53.292;6.000;2023-12-22T02:44:41;6.10;80.50
56538;DHT22;42435;53.292;6.000;2023-12-22T02:47:06;6.10;80.50
56538;DHT22;42435;53.292;6.000;2023-12-22T02:49:32;6.10;80.50
56538;DHT22;42435;53.292;6.000;2023-12-22T02:51:57;6.20;80.40
56538;DHT22;42435;53.292;6.000;2023-12-22T02:54:23;6.20;80.30
56538;DHT22;42435;53.292;6.000;2023-12-22T02:56:49;6.20;80.10
56538;DHT22;42435;53.292;6.000;2023-12-22T02:59:14;6.20;80.00
56538;DHT22;42435;53.292;6.000;2023-12-22T03:01:40;6.20;79.70
56538;DHT22;42435;53.292;6.000;2023-12-22T03:04:06;6.30;79.50
56538;DHT22;42435;53.292;6.000;2023-12-22T03:06:31;6.30;79.30
56538;DHT22;42435;53.292;6.000;2023-12-22T03:08:57;6.30;79.10
56538;DHT22;42435;53.292;6.000;2023-12-22T03:11:22;6.30;78.90
56538;DHT22;42435;53.292;6.000;2023-12-22T03:13:48;6.40;78.60
56538;DHT22;42435;53.292;6.000;2023-12-22T03:16:13;6.40;78.50
56538;DHT22;42435;53.292;6.000;2023-12-22T03:18:39;6.50;78.40
56538;DHT22;42435;53.292;6.000;2023-12-22T03:21:05;6.50;78.40
56538;DHT22;42435;53.292;6.000;2023-12-22T03:23:30;6.50;78.50
56538;DHT22;42435;53.292;6.000;2023-12-22T03:25:56;6.60;78.60
56538;DHT22;42435;53.292;6.000;2023-12-22T03:28:22;6.60;78.70
56538;DHT22;42435;53.292;6.000;2023-12-22T03:30:47;6.60;78.70
56538;DHT22;42435;53.292;6.000;2023-12-22T03:33:13;6.70;78.70
56538;DHT22;42435;53.292;6.000;2023-12-22T03:35:42;6.70;78.60
56538;DHT22;42435;53.292;6.000;2023-12-22T03:38:08;6.80;78.60
56538;DHT22;42435;53.292;6.000;2023-12-22T03:40:37;6.80;78.50
56538;DHT22;42435;53.292;6.000;2023-12-22T03:43:03;6.90;78.10
56538;DHT22;42435;53.292;6.000;2023-12-22T03:45:28;6.90;77.70
56538;DHT22;42435;53.292;6.000;2023-12-22T03:47:54;6.90;77.30
56538;DHT22;42435;53.292;6.000;2023-12-22T03:50:19;7.00;77.00
56538;DHT22;42435;53.292;6.000;2023-12-22T03:52:48;7.00;76.70
56538;DHT22;42435;53.292;6.000;2023-12-22T03:55:14;7.00;76.50
56538;DHT22;42435;53.292;6.000;2023-12-22T03:57:39;7.00;76.30
56538;DHT22;42435;53.292;6.000;2023-12-22T04:00:05;7.10;76.20
56538;DHT22;42435;53.292;6.000;2023-12-22T04:02:31;7.10;76.10
56538;DHT22;42435;53.292;6.000;2023-12-22T04:04:57;7.10;76.10
56538;DHT22;42435;53.292;6.000;2023-12-22T04:07:22;7.10;76.10
56538;DHT22;42435;53.292;6.000;2023-12-22T04:09:49;7.10;76.00
56538;DHT22;42435;53.292;6.000;2023-12-22T04:12:14;7.10;75.90
56538;DHT22;42435;53.292;6.000;2023-12-22T04:14:40;7.20;75.80
56538;DHT22;42435;53.292;6.000;2023-12-22T04:17:06;7.20;75.60
56538;DHT22;42435;53.292;6.000;2023-12-22T04:19:31;7.20;75.30
56538;DHT22;42435;53.292;6.000;2023-12-22T04:22:00;7.20;75.10
56538;DHT22;42435;53.292;6.000;2023-12-22T04:24:25;7.10;75.00
56538;DHT22;42435;53.292;6.000;2023-12-22T04:26:51;7.10;74.70
56538;DHT22;42435;53.292;6.000;2023-12-22T04:29:16;7.10;74.60
56538;DHT22;42435;53.292;6.000;2023-12-22T04:31:42;7.10;74.70
56538;DHT22;42435;53.292;6.000;2023-12-22T04:34:07;7.20;74.90
56538;DHT22;42435;53.292;6.000;2023-12-22T04:36:33;7.10;74.80
56538;DHT22;42435;53.292;6.000;2023-12-22T04:39:00;7.20;74.90
56538;DHT22;42435;53.292;6.000;2023-12-22T04:41:25;7.20;74.70
56538;DHT22;42435;53.292;6.000;2023-12-22T04:43:51;7.20;74.30
56538;DHT22;42435;53.292;6.000;2023-12-22T04:46:16;7.30;74.20
56538;DHT22;42435;53.292;6.000;2023-12-22T04:48:42;7.30;74.10
56538;DHT22;42435;53.292;6.000;2023-12-22T04:51:08;7.30;73.90
56538;DHT22;42435;53.292;6.000;2023-12-22T04:53:33;7.30;73.70
56538;DHT22;42435;53.292;6.000;2023-12-22T04:55:59;7.30;73.30
56538;DHT22;42435;53.292;6.000;2023-12-22T04:58:24;7.30;73.10
56538;DHT22;42435;53.292;6.000;2023-12-22T05:00:50;7.30;72.40
56538;DHT22;42435;53.292;6.000;2023-12-22T05:03:15;7.30;72.10
56538;DHT22;42435;53.292;6.000;2023-12-22T05:05:42;7.30;72.00
56538;DHT22;42435;53.292;6.000;2023-12-22T05:08:11;7.30;72.20
56538;DHT22;42435;53.292;6.000;2023-12-22T05:10:36;7.40;72.30
56538;DHT22;42435;53.292;6.000;2023-12-22T05:13:02;7.40;72.30
56538;DHT22;42435;53.292;6.000;2023-12-22T05:15:27;7.40;72.10
56538;DHT22;42435;53.292;6.000;2023-12-22T05:17:53;7.40;72.00
56538;DHT22;42435;53.292;6.000;2023-12-22T05:20:18;7.40;72.10
56538;DHT22;42435;53.292;6.000;2023-12-22T05:22:44;7.40;72.00
56538;DHT22;42435;53.292;6.000;2023-12-22T05:25:10;7.40;71.30
56538;DHT22;42435;53.292;6.000;2023-12-22T05:27:41;7.40;71.10
56538;DHT22;42435;53.292;6.000;2023-12-22T05:30:08;7.50;71.10
56538;DHT22;42435;53.292;6.000;2023-12-22T05:32:37;7.50;71.20
56538;DHT22;42435;53.292;6.000;2023-12-22T05:35:03;7.50;71.20
56538;DHT22;42435;53.292;6.000;2023-12-22T05:37:28;7.50;71.40
56538;DHT22;42435;53.292;6.000;2023-12-22T05:39:57;7.50;71.70
56538;DHT22;42435;53.292;6.000;2023-12-22T05:42:23;7.50;72.00
56538;DHT22;42435;53.292;6.000;2023-12-22T05:44:48;7.50;72.20
56538;DHT22;42435;53.292;6.000;2023-12-22T05:47:18;7.50;72.40
56538;DHT22;42435;53.292;6.000;2023-12-22T05:49:44;7.60;72.40
56538;DHT22;42435;53.292;6.000;2023-12-22T05:52:11;7.60;72.60
56538;DHT22;42435;53.292;6.000;2023-12-22T05:54:37;7.60;72.60
56538;DHT22;42435;53.292;6.000;2023-12-22T05:57:04;7.60;72.00
56538;DHT22;42435;53.292;6.000;2023-12-22T05:59:32;7.60;71.60
56538;DHT22;42435;53.292;6.000;2023-12-22T06:01:58;7.60;71.10
56538;DHT22;42435;53.292;6.000;2023-12-22T06:04:25;7.60;70.80
56538;DHT22;42435;53.292;6.000;2023-12-22T06:06:52;7.70;70.40
56538;DHT22;42435;53.292;6.000;2023-12-22T06:09:17;7.60;70.20
56538;DHT22;42435;53.292;6.000;2023-12-22T06:11:48;7.60;69.80
56538;DHT22;42435;53.292;6.000;2023-12-22T06:14:13;7.60;69.60
56538;DHT22;42435;53.292;6.000;2023-12-22T06:16:40;7.60;69.40
56538;DHT22;42435;53.292;6.000;2023-12-22T06:19:06;7.60;69.50
56538;DHT22;42435;53.292;6.000;2023-12-22T06:21:31;7.60;69.60
56538;DHT22;42435;53.292;6.000;2023-12-22T06:23:57;7.60;69.50
56538;DHT22;42435;53.292;6.000;2023-12-22T06:26:23;7.60;69.70
56538;DHT22;42435;53.292;6.000;2023-12-22T06:28:49;7.60;69.80
56538;DHT22;42435;53.292;6.000;2023-12-22T06:31:21;7.60;69.90
56538;DHT22;42435;53.292;6.000;2023-12-22T06:33:48;7.50;69.90
56538;DHT22;42435;53.292;6.000;2023-12-22T06:36:24;7.60;70.00
56538;DHT22;42435;53.292;6.000;2023-12-22T06:38:52;7.60;70.20
56538;DHT22;42435;53.292;6.000;2023-12-22T06:41:28;7.60;70.20
56538;DHT22;42435;53.292;6.000;2023-12-22T06:43:56;7.60;70.00
56538;DHT22;42435;53.292;6.000;2023-12-22T06:46:24;7.70;70.20
56538;DHT22;42435;53.292;6.000;2023-12-22T06:48:54;7.70;70.40
56538;DHT22;42435;53.292;6.000;2023-12-22T06:51:30;7.70;70.60
56538;DHT22;42435;53.292;6.000;2023-12-22T06:53:56;7.70;70.70
56538;DHT22;42435;53.292;6.000;2023-12-22T06:56:24;7.70;70.80
56538;DHT22;42435;53.292;6.000;2023-12-22T06:58:52;7.70;70.90
56538;DHT22;42435;53.292;6.000;2023-12-22T07:03:51;7.70;71.10
56538;DHT22;42435;53.292;6.000;2023-12-22T07:06:19;7.70;71.20
56538;DHT22;42435;53.292;6.000;2023-12-22T07:08:57;7.70;71.50
56538;DHT22;42435;53.292;6.000;2023-12-22T07:11:23;7.70;71.80
56538;DHT22;42435;53.292;6.000;2023-12-22T07:13:48;7.70;72.00
56538;DHT22;42435;53.292;6.000;2023-12-22T07:16:15;7.80;72.20
56538;DHT22;42435;53.292;6.000;2023-12-22T07:18:40;7.80;72.20
56538;DHT22;42435;53.292;6.000;2023-12-22T07:21:16;7.80;72.20
56538;DHT22;42435;53.292;6.000;2023-12-22T07:23:42;7.80;72.00
56538;DHT22;42435;53.292;6.000;2023-12-22T07:26:10;7.80;71.80
56538;DHT22;42435;53.292;6.000;2023-12-22T07:28:36;7.90;71.90
56538;DHT22;42435;53.292;6.000;2023-12-22T07:31:01;7.90;72.00
56538;DHT22;42435;53.292;6.000;2023-12-22T07:33:27;7.90;72.00
56538;DHT22;42435;53.292;6.000;2023-12-22T07:35:54;7.90;72.20
56538;DHT22;42435;53.292;6.000;2023-12-22T07:38:20;7.90;72.30
56538;DHT22;42435;53.292;6.000;2023-12-22T07:40:45;7.90;72.40
56538;DHT22;42435;53.292;6.000;2023-12-22T07:43:11;7.90;72.50
56538;DHT22;42435;53.292;6.000;2023-12-22T07:45:36;7.90;72.70
56538;DHT22;42435;53.292;6.000;2023-12-22T07:48:03;8.00;72.90
56538;DHT22;42435;53.292;6.000;2023-12-22T07:50:29;7.90;73.10
56538;DHT22;42435;53.292;6.000;2023-12-22T07:52:54;7.90;73.30
56538;DHT22;42435;53.292;6.000;2023-12-22T07:55:20;8.00;73.50
56538;DHT22;42435;53.292;6.000;2023-12-22T07:57:45;8.00;73.90
56538;DHT22;42435;53.292;6.000;2023-12-22T08:00:11;8.00;74.30
56538;DHT22;42435;53.292;6.000;2023-12-22T08:02:37;8.00;74.80
56538;DHT22;42435;53.292;6.000;2023-12-22T08:05:04;8.00;75.30
56538;DHT22;42435;53.292;6.000;2023-12-22T08:07:31;8.00;76.00
56538;DHT22;42435;53.292;6.000;2023-12-22T08:09:57;8.00;76.50
56538;DHT22;42435;53.292;6.000;2023-12-22T08:12:23;7.90;77.00
56538;DHT22;42435;53.292;6.000;2023-12-22T08:14:48;7.90;77.60
56538;DHT22;42435;53.292;6.000;2023-12-22T08:17:14;7.90;78.00
56538;DHT22;42435;53.292;6.000;2023-12-22T08:19:40;7.90;78.20
56538;DHT22;42435;53.292;6.000;2023-12-22T08:22:11;7.90;78.50
56538;DHT22;42435;53.292;6.000;2023-12-22T08:24:40;7.80;78.90
56538;DHT22;42435;53.292;6.000;2023-12-22T08:27:05;7.80;78.90
56538;DHT22;42435;53.292;6.000;2023-12-22T08:29:34;7.70;79.00
56538;DHT22;42435;53.292;6.000;2023-12-22T08:32:00;7.70;79.00
56538;DHT22;42435;53.292;6.000;2023-12-22T08:34:26;7.60;79.10
56538;DHT22;42435;53.292;6.000;2023-12-22T08:36:52;7.60;79.20
56538;DHT22;42435;53.292;6.000;2023-12-22T08:39:18;7.50;79.30
56538;DHT22;42435;53.292;6.000;2023-12-22T08:41:45;7.50;79.40
56538;DHT22;42435;53.292;6.000;2023-12-22T08:44:11;7.50;79.40
56538;DHT22;42435;53.292;6.000;2023-12-22T08:46:40;7.50;79.50
56538;DHT22;42435;53.292;6.000;2023-12-22T08:49:08;7.40;79.50
56538;DHT22;42435;53.292;6.000;2023-12-22T08:51:34;7.40;79.60
56538;DHT22;42435;53.292;6.000;2023-12-22T08:54:00;7.40;79.70
56538;DHT22;42435;53.292;6.000;2023-12-22T08:56:26;7.40;79.70
56538;DHT22;42435;53.292;6.000;2023-12-22T08:58:53;7.40;79.70
56538;DHT22;42435;53.292;6.000;2023-12-22T09:01:21;7.40;79.60
56538;DHT22;42435;53.292;6.000;2023-12-22T09:03:47;7.40;79.50
56538;DHT22;42435;53.292;6.000;2023-12-22T09:06:23;7.40;79.50
56538;DHT22;42435;53.292;6.000;2023-12-22T09:08:51;7.50;79.60
56538;DHT22;42435;53.292;6.000;2023-12-22T09:11:17;7.50;79.60
56538;DHT22;42435;53.292;6.000;2023-12-22T09:13:43;7.60;79.70
56538;DHT22;42435;53.292;6.000;2023-12-22T09:16:09;7.60;79.70
56538;DHT22;42435;53.292;6.000;2023-12-22T09:18:41;7.70;79.70
56538;DHT22;42435;53.292;6.000;2023-12-22T09:21:08;7.80;79.50
56538;DHT22;42435;53.292;6.000;2023-12-22T09:23:33;7.90;79.20
56538;DHT22;42435;53.292;6.000;2023-12-22T09:25:59;7.90;79.10
56538;DHT22;42435;53.292;6.000;2023-12-22T09:28:28;8.00;79.00
56538;DHT22;42435;53.292;6.000;2023-12-22T09:30:53;8.00;78.90
56538;DHT22;42435;53.292;6.000;2023-12-22T09:33:19;8.00;78.80
56538;DHT22;42435;53.292;6.000;2023-12-22T09:35:45;8.10;78.80
56538;DHT22;42435;53.292;6.000;2023-12-22T09:38:11;8.10;78.70
56538;DHT22;42435;53.292;6.000;2023-12-22T09:40:42;8.10;78.70
56538;DHT22;42435;53.292;6.000;2023-12-22T09:43:08;8.20;78.70
56538;DHT22;42435;53.292;6.000;2023-12-22T09:45:37;8.20;78.70
56538;DHT22;42435;53.292;6.000;2023-12-22T09:48:06;8.20;78.70
56538;DHT22;42435;53.292;6.000;2023-12-22T09:50:33;8.20;78.80
56538;DHT22;42435;53.292;6.000;2023-12-22T09:53:00;8.30;78.90
56538;DHT22;42435;53.292;6.000;2023-12-22T09:55:27;8.30;78.90
56538;DHT22;42435;53.292;6.000;2023-12-22T09:57:55;8.30;79.00
56538;DHT22;42435;53.292;6.000;2023-12-22T10:00:22;8.30;78.90
56538;DHT22;42435;53.292;6.000;2023-12-22T10:02:49;8.40;79.00
56538;DHT22;42435;53.292;6.000;2023-12-22T10:05:14;8.40;79.00
56538;DHT22;42435;53.292;6.000;2023-12-22T10:07:46;8.40;78.90
56538;DHT22;42435;53.292;6.000;2023-12-22T10:10:12;8.50;78.90
56538;DHT22;42435;53.292;6.000;2023-12-22T10:12:40;8.50;78.90
56538;DHT22;42435;53.292;6.000;2023-12-22T10:15:08;8.50;78.90
56538;DHT22;42435;53.292;6.000;2023-12-22T10:17:34;8.50;78.90
56538;DHT22;42435;53.292;6.000;2023-12-22T10:20:01;8.60;78.90
56538;DHT22;42435;53.292;6.000;2023-12-22T10:22:29;8.60;78.90
56538;DHT22;42435;53.292;6.000;2023-12-22T10:24:54;8.60;78.90
56538;DHT22;42435;53.292;6.000;2023-12-22T10:27:21;8.60;79.00
56538;DHT22;42435;53.292;6.000;2023-12-22T10:29:53;8.70;79.00
56538;DHT22;42435;53.292;6.000;2023-12-22T10:32:21;8.70;79.00
56538;DHT22;42435;53.292;6.000;2023-12-22T10:34:47;8.70;79.00
56538;DHT22;42435;53.292;6.000;2023-12-22T10:37:15;8.80;79.00
56538;DHT22;42435;53.292;6.000;2023-12-22T10:39:42;8.80;79.00
56538;DHT22;42435;53.292;6.000;2023-12-22T10:42:08;8.80;78.90
56538;DHT22;42435;53.292;6.000;2023-12-22T10:44:34;8.80;78.90
56538;DHT22;42435;53.292;6.000;2023-12-22T10:47:00;8.80;78.90
56538;DHT22;42435;53.292;6.000;2023-12-22T10:49:30;8.90;78.90
56538;DHT22;42435;53.292;6.000;2023-12-22T10:51:56;8.90;78.90
56538;DHT22;42435;53.292;6.000;2023-12-22T10:54:26;8.90;78.90
56538;DHT22;42435;53.292;6.000;2023-12-22T10:56:54;8.90;78.90
56538;DHT22;42435;53.292;6.000;2023-12-22T10:59:22;9.00;78.90
56538;DHT22;42435;53.292;6.000;2023-12-22T11:01:48;8.90;78.90
56538;DHT22;42435;53.292;6.000;2023-12-22T11:04:17;8.90;78.90
56538;DHT22;42435;53.292;6.000;2023-12-22T11:06:47;9.00;78.90
56538;DHT22;42435;53.292;6.000;2023-12-22T11:09:16;9.00;78.90
56538;DHT22;42435;53.292;6.000;2023-12-22T11:11:42;9.00;78.80
56538;DHT22;42435;53.292;6.000;2023-12-22T11:14:09;9.00;78.80
56538;DHT22;42435;53.292;6.000;2023-12-22T11:16:37;9.00;78.70
56538;DHT22;42435;53.292;6.000;2023-12-22T11:19:04;9.00;78.70
56538;DHT22;42435;53.292;6.000;2023-12-22T11:21:33;9.00;78.70
56538;DHT22;42435;53.292;6.000;2023-12-22T11:24:01;9.00;78.60
56538;DHT22;42435;53.292;6.000;2023-12-22T11:26:32;9.00;78.60
56538;DHT22;42435;53.292;6.000;2023-12-22T11:29:00;9.10;78.50
56538;DHT22;42435;53.292;6.000;2023-12-22T11:31:28;9.00;78.50
56538;DHT22;42435;53.292;6.000;2023-12-22T11:33:58;9.00;78.30
56538;DHT22;42435;53.292;6.000;2023-12-22T11:36:31;9.00;78.20
56538;DHT22;42435;53.292;6.000;2023-12-22T11:38:59;9.00;78.10
56538;DHT22;42435;53.292;6.000;2023-12-22T11:41:27;8.90;78.00
56538;DHT22;42435;53.292;6.000;2023-12-22T11:43:57;8.90;78.10
56538;DHT22;42435;53.292;6.000;2023-12-22T11:46:24;8.90;78.00
56538;DHT22;42435;53.292;6.000;2023-12-22T11:48:51;8.90;78.00
56538;DHT22;42435;53.292;6.000;2023-12-22T11:51:19;8.90;78.00
56538;DHT22;42435;53.292;6.000;2023-12-22T11:53:45;8.90;77.90
56538;DHT22;42435;53.292;6.000;2023-12-22T11:56:12;8.90;77.90
56538;DHT22;42435;53.292;6.000;2023-12-22T11:58:46;8.90;77.90
56538;DHT22;42435;53.292;6.000;2023-12-22T12:01:17;8.90;77.90
56538;DHT22;42435;53.292;6.000;2023-12-22T12:03:51;8.90;77.90
56538;DHT22;42435;53.292;6.000;2023-12-22T12:06:33;8.90;78.00
56538;DHT22;42435;53.292;6.000;2023-12-22T12:09:05;8.90;78.10
56538;DHT22;42435;53.292;6.000;2023-12-22T12:14:22;8.90;78.10
56538;DHT22;42435;53.292;6.000;2023-12-22T12:16:59;8.90;78.00
56538;DHT22;42435;53.292;6.000;2023-12-22T12:19:26;8.90;78.00
56538;DHT22;42435;53.292;6.000;2023-12-22T12:21:52;8.90;78.00
56538;DHT22;42435;53.292;6.000;2023-12-22T12:24:18;8.90;78.00
56538;DHT22;42435;53.292;6.000;2023-12-22T12:26:43;8.90;77.90
56538;DHT22;42435;53.292;6.000;2023-12-22T12:29:09;8.90;77.80
56538;DHT22;42435;53.292;6.000;2023-12-22T12:31:38;8.90;77.70
56538;DHT22;42435;53.292;6.000;2023-12-22T12:34:09;8.90;77.50
56538;DHT22;42435;53.292;6.000;2023-12-22T12:36:35;8.90;77.60
56538;DHT22;42435;53.292;6.000;2023-12-22T12:39:08;8.90;77.70
56538;DHT22;42435;53.292;6.000;2023-12-22T12:41:36;8.80;77.80
56538;DHT22;42435;53.292;6.000;2023-12-22T12:44:06;8.80;78.00
56538;DHT22;42435;53.292;6.000;2023-12-22T12:46:37;8.80;78.20
56538;DHT22;42435;53.292;6.000;2023-12-22T12:49:07;8.80;78.50
56538;DHT22;42435;53.292;6.000;2023-12-22T12:51:43;8.70;78.70
56538;DHT22;42435;53.292;6.000;2023-12-22T12:54:10;8.70;79.00
56538;DHT22;42435;53.292;6.000;2023-12-22T12:56:43;8.70;79.10
56538;DHT22;42435;53.292;6.000;2023-12-22T12:59:13;8.60;79.20
56538;DHT22;42435;53.292;6.000;2023-12-22T13:01:40;8.50;79.30
56538;DHT22;42435;53.292;6.000;2023-12-22T13:04:06;8.50;79.40
56538;DHT22;42435;53.292;6.000;2023-12-22T13:06:33;8.50;79.60
56538;DHT22;42435;53.292;6.000;2023-12-22T13:08:59;8.40;79.90
56538;DHT22;42435;53.292;6.000;2023-12-22T13:11:31;8.30;80.20
56538;DHT22;42435;53.292;6.000;2023-12-22T13:14:00;8.30;80.50
56538;DHT22;42435;53.292;6.000;2023-12-22T13:16:29;8.20;80.60
56538;DHT22;42435;53.292;6.000;2023-12-22T13:18:59;8.20;80.80
56538;DHT22;42435;53.292;6.000;2023-12-22T13:21:25;8.20;81.00
56538;DHT22;42435;53.292;6.000;2023-12-22T13:24:16;8.10;81.00
56538;DHT22;42435;53.292;6.000;2023-12-22T13:26:43;8.10;81.20
56538;DHT22;42435;53.292;6.000;2023-12-22T13:29:10;8.10;81.10
56538;DHT22;42435;53.292;6.000;2023-12-22T13:31:40;8.00;81.20
56538;DHT22;42435;53.292;6.000;2023-12-22T13:34:13;8.00;81.40
56538;DHT22;42435;53.292;6.000;2023-12-22T13:36:40;8.00;81.50
56538;DHT22;42435;53.292;6.000;2023-12-22T13:39:08;8.00;81.50
56538;DHT22;42435;53.292;6.000;2023-12-22T13:41:35;8.00;81.70
56538;DHT22;42435;53.292;6.000;2023-12-22T13:44:07;8.00;81.90
56538;DHT22;42435;53.292;6.000;2023-12-22T13:46:33;8.00;82.00
56538;DHT22;42435;53.292;6.000;2023-12-22T13:49:05;8.00;82.20
56538;DHT22;42435;53.292;6.000;2023-12-22T13:51:43;8.00;82.40
56538;DHT22;42435;53.292;6.000;2023-12-22T13:54:10;8.00;82.60
56538;DHT22;42435;53.292;6.000;2023-12-22T13:56:36;8.00;82.60
56538;DHT22;42435;53.292;6.000;2023-12-22T13:59:03;8.10;82.70
56538;DHT22;42435;53.292;6.000;2023-12-22T14:01:29;8.10;82.80
56538;DHT22;42435;53.292;6.000;2023-12-22T14:03:55;8.00;82.90
56538;DHT22;42435;53.292;6.000;2023-12-22T14:06:25;8.10;83.00
56538;DHT22;42435;53.292;6.000;2023-12-22T14:08:50;8.10;83.00
56538;DHT22;42435;53.292;6.000;2023-12-22T14:11:17;8.10;83.00
56538;DHT22;42435;53.292;6.000;2023-12-22T14:13:43;8.10;83.10
56538;DHT22;42435;53.292;6.000;2023-12-22T14:16:09;8.10;83.10
56538;DHT22;42435;53.292;6.000;2023-12-22T14:18:35;8.10;83.00
56538;DHT22;42435;53.292;6.000;2023-12-22T14:21:01;8.10;83.00
56538;DHT22;42435;53.292;6.000;2023-12-22T14:23:29;8.20;83.00
56538;DHT22;42435;53.292;6.000;2023-12-22T14:25:56;8.20;83.00
56538;DHT22;42435;53.292;6.000;2023-12-22T14:28:21;8.20;83.00
56538;DHT22;42435;53.292;6.000;2023-12-22T14:30:47;8.20;83.00
56538;DHT22;42435;53.292;6.000;2023-12-22T14:33:16;8.20;83.10
56538;DHT22;42435;53.292;6.000;2023-12-22T14:35:42;8.20;83.10
56538;DHT22;42435;53.292;6.000;2023-12-22T14:38:07;8.20;83.00
56538;DHT22;42435;53.292;6.000;2023-12-22T14:40:33;8.20;83.00
56538;DHT22;42435;53.292;6.000;2023-12-22T14:42:59;8.20;82.90
56538;DHT22;42435;53.292;6.000;2023-12-22T14:45:27;8.20;82.80
56538;DHT22;42435;53.292;6.000;2023-12-22T14:47:52;8.20;82.70
56538;DHT22;42435;53.292;6.000;2023-12-22T14:50:18;8.20;82.60
56538;DHT22;42435;53.292;6.000;2023-12-22T14:52:44;8.20;82.60
56538;DHT22;42435;53.292;6.000;2023-12-22T14:55:11;8.20;82.50
56538;DHT22;42435;53.292;6.000;2023-12-22T14:57:37;8.20;82.50
56538;DHT22;42435;53.292;6.000;2023-12-22T15:00:04;8.20;82.50
56538;DHT22;42435;53.292;6.000;2023-12-22T15:02:31;8.20;82.60
56538;DHT22;42435;53.292;6.000;2023-12-22T15:04:56;8.20;82.70
56538;DHT22;42435;53.292;6.000;2023-12-22T15:07:25;8.20;82.80
56538;DHT22;42435;53.292;6.000;2023-12-22T15:09:52;8.20;82.90
56538;DHT22;42435;53.292;6.000;2023-12-22T15:12:17;8.20;82.90
56538;DHT22;42435;53.292;6.000;2023-12-22T15:14:47;8.20;82.90
56538;DHT22;42435;53.292;6.000;2023-12-22T15:17:15;8.20;82.90
56538;DHT22;42435;53.292;6.000;2023-12-22T15:19:42;8.20;82.90
56538;DHT22;42435;53.292;6.000;2023-12-22T15:22:11;8.20;82.80
56538;DHT22;42435;53.292;6.000;2023-12-22T15:24:42;8.20;82.70
56538;DHT22;42435;53.292;6.000;2023-12-22T15:27:09;8.10;82.60
56538;DHT22;42435;53.292;6.000;2023-12-22T15:29:35;8.10;82.40
56538;DHT22;42435;53.292;6.000;2023-12-22T15:32:01;8.10;82.30
56538;DHT22;42435;53.292;6.000;2023-12-22T15:34:28;8.00;82.30
56538;DHT22;42435;53.292;6.000;2023-12-22T15:36:54;8.00;82.20
56538;DHT22;42435;53.292;6.000;2023-12-22T15:39:20;8.00;82.20
56538;DHT22;42435;53.292;6.000;2023-12-22T15:41:47;8.00;82.10
56538;DHT22;42435;53.292;6.000;2023-12-22T15:44:12;8.10;81.90
56538;DHT22;42435;53.292;6.000;2023-12-22T15:46:38;8.10;81.80
56538;DHT22;42435;53.292;6.000;2023-12-22T15:49:09;8.10;81.50